Terminal Aerodrome Forecast
Issued by NWS

Home | Current Version | Previous Version | Text Only | Print | Product List | Glossary On
Versions: 1 2 3 4 5 6 7 8 9 10 11 12 13 14 15
000
FTUS45 KPSR 312100 AAA
TAFIPL
TAF AMD
KIPL 312102Z 3121/0118 34010KT P6SM BKN090
     FM312300 32008KT P6SM BKN060
     FM010300 29005KT P6SM FEW060=

USA.gov is the U.S. government's official web portal to all federal, state and local government web resources and services.